sensor_id;sensor_type;location;lat;lon;timestamp;temperature;humidity
612;DHT22;293;53.888;11.464;2023-07-31T00:01:55;15.90;99.90
612;DHT22;293;53.888;11.464;2023-07-31T00:04:23;16.00;99.90
612;DHT22;293;53.888;11.464;2023-07-31T00:06:50;16.00;99.90
612;DHT22;293;53.888;11.464;2023-07-31T00:09:16;16.00;99.90
612;DHT22;293;53.888;11.464;2023-07-31T00:11:43;16.10;99.90
612;DHT22;293;53.888;11.464;2023-07-31T00:14:10;16.10;99.90
612;DHT22;293;53.888;11.464;2023-07-31T00:16:37;16.10;99.90
612;DHT22;293;53.888;11.464;2023-07-31T00:19:04;16.10;99.90
612;DHT22;293;53.888;11.464;2023-07-31T00:21:32;16.10;99.90
612;DHT22;293;53.888;11.464;2023-07-31T00:23:59;16.10;99.90
612;DHT22;293;53.888;11.464;2023-07-31T00:26:26;16.10;99.90
612;DHT22;293;53.888;11.464;2023-07-31T00:28:52;16.10;99.90
612;DHT22;293;53.888;11.464;2023-07-31T00:31:19;16.10;99.90
612;DHT22;293;53.888;11.464;2023-07-31T00:33:46;16.20;99.90
612;DHT22;293;53.888;11.464;2023-07-31T00:36:13;16.20;99.90
612;DHT22;293;53.888;11.464;2023-07-31T00:38:41;16.20;99.90
612;DHT22;293;53.888;11.464;2023-07-31T00:41:08;16.20;99.90
612;DHT22;293;53.888;11.464;2023-07-31T00:43:35;16.20;99.90
612;DHT22;293;53.888;11.464;2023-07-31T00:46:02;16.20;99.90
612;DHT22;293;53.888;11.464;2023-07-31T00:48:29;16.20;99.90
612;DHT22;293;53.888;11.464;2023-07-31T00:50:56;16.20;99.90
612;DHT22;293;53.888;11.464;2023-07-31T00:53:24;16.20;99.90
612;DHT22;293;53.888;11.464;2023-07-31T00:55:53;16.20;99.90
612;DHT22;293;53.888;11.464;2023-07-31T00:58:20;16.20;99.90
612;DHT22;293;53.888;11.464;2023-07-31T01:00:47;16.10;99.90
612;DHT22;293;53.888;11.464;2023-07-31T01:03:14;16.10;99.90
612;DHT22;293;53.888;11.464;2023-07-31T01:05:47;16.10;99.90
612;DHT22;293;53.888;11.464;2023-07-31T01:08:31;16.00;99.90
612;DHT22;293;53.888;11.464;2023-07-31T01:11:07;15.90;99.90
612;DHT22;293;53.888;11.464;2023-07-31T01:13:34;16.00;99.90
612;DHT22;293;53.888;11.464;2023-07-31T01:16:01;15.90;99.90
612;DHT22;293;53.888;11.464;2023-07-31T01:18:28;15.90;99.90
612;DHT22;293;53.888;11.464;2023-07-31T01:21:03;15.90;99.90
612;DHT22;293;53.888;11.464;2023-07-31T01:23:48;15.90;99.90
612;DHT22;293;53.888;11.464;2023-07-31T01:26:21;16.00;99.90
612;DHT22;293;53.888;11.464;2023-07-31T01:28:55;15.90;99.90
612;DHT22;293;53.888;11.464;2023-07-31T01:31:24;16.00;99.90
612;DHT22;293;53.888;11.464;2023-07-31T01:33:53;16.00;99.90
612;DHT22;293;53.888;11.464;2023-07-31T01:36:21;16.00;99.90
612;DHT22;293;53.888;11.464;2023-07-31T01:38:48;16.00;99.90
612;DHT22;293;53.888;11.464;2023-07-31T01:41:17;16.10;99.90
612;DHT22;293;53.888;11.464;2023-07-31T01:43:45;16.10;99.90
612;DHT22;293;53.888;11.464;2023-07-31T01:46:12;16.00;99.90
612;DHT22;293;53.888;11.464;2023-07-31T01:48:39;16.10;99.90
612;DHT22;293;53.888;11.464;2023-07-31T01:51:05;16.10;99.90
612;DHT22;293;53.888;11.464;2023-07-31T01:53:32;16.10;99.90
612;DHT22;293;53.888;11.464;2023-07-31T01:55:59;16.10;99.90
612;DHT22;293;53.888;11.464;2023-07-31T01:58:26;16.10;99.90
612;DHT22;293;53.888;11.464;2023-07-31T02:00:54;16.10;99.90
612;DHT22;293;53.888;11.464;2023-07-31T02:03:22;16.10;99.90
612;DHT22;293;53.888;11.464;2023-07-31T02:05:49;16.10;99.90
612;DHT22;293;53.888;11.464;2023-07-31T02:08:16;16.10;99.90
612;DHT22;293;53.888;11.464;2023-07-31T02:10:43;16.10;99.90
612;DHT22;293;53.888;11.464;2023-07-31T02:13:10;16.10;99.90
612;DHT22;293;53.888;11.464;2023-07-31T02:15:37;16.20;99.90
612;DHT22;293;53.888;11.464;2023-07-31T02:18:06;16.20;99.90
612;DHT22;293;53.888;11.464;2023-07-31T02:20:34;16.20;99.90
612;DHT22;293;53.888;11.464;2023-07-31T02:23:01;16.30;99.90
612;DHT22;293;53.888;11.464;2023-07-31T02:25:28;16.30;99.90
612;DHT22;293;53.888;11.464;2023-07-31T02:27:55;16.20;99.90
612;DHT22;293;53.888;11.464;2023-07-31T02:30:21;16.20;99.90
612;DHT22;293;53.888;11.464;2023-07-31T02:32:48;16.20;99.90
612;DHT22;293;53.888;11.464;2023-07-31T02:35:17;16.10;99.90
612;DHT22;293;53.888;11.464;2023-07-31T02:37:44;16.20;99.90
612;DHT22;293;53.888;11.464;2023-07-31T02:40:11;16.10;99.90
612;DHT22;293;53.888;11.464;2023-07-31T02:42:38;16.20;99.90
612;DHT22;293;53.888;11.464;2023-07-31T02:45:06;16.10;99.90
612;DHT22;293;53.888;11.464;2023-07-31T02:47:33;16.20;99.90
612;DHT22;293;53.888;11.464;2023-07-31T02:50:00;16.10;99.90
612;DHT22;293;53.888;11.464;2023-07-31T02:52:28;16.20;99.90
612;DHT22;293;53.888;11.464;2023-07-31T02:54:55;16.20;99.90
612;DHT22;293;53.888;11.464;2023-07-31T02:57:22;16.20;99.90
612;DHT22;293;53.888;11.464;2023-07-31T02:59:49;16.20;99.90
612;DHT22;293;53.888;11.464;2023-07-31T03:02:16;16.20;99.90
612;DHT22;293;53.888;11.464;2023-07-31T03:04:42;16.20;99.90
612;DHT22;293;53.888;11.464;2023-07-31T03:07:09;16.20;99.90
612;DHT22;293;53.888;11.464;2023-07-31T03:09:38;16.20;99.90
612;DHT22;293;53.888;11.464;2023-07-31T03:12:05;16.10;99.90
612;DHT22;293;53.888;11.464;2023-07-31T03:14:32;16.10;99.90
612;DHT22;293;53.888;11.464;2023-07-31T03:16:59;16.10;99.90
612;DHT22;293;53.888;11.464;2023-07-31T03:19:26;16.20;99.90
612;DHT22;293;53.888;11.464;2023-07-31T03:21:53;16.20;99.90
612;DHT22;293;53.888;11.464;2023-07-31T03:24:20;16.20;99.90
612;DHT22;293;53.888;11.464;2023-07-31T03:26:48;16.20;99.90
612;DHT22;293;53.888;11.464;2023-07-31T03:29:15;16.20;99.90
612;DHT22;293;53.888;11.464;2023-07-31T03:31:41;16.20;99.90
612;DHT22;293;53.888;11.464;2023-07-31T03:34:08;16.20;99.90
612;DHT22;293;53.888;11.464;2023-07-31T03:36:35;16.20;99.90
612;DHT22;293;53.888;11.464;2023-07-31T03:39:02;17.90;99.90
612;DHT22;293;53.888;11.464;2023-07-31T03:41:29;16.20;99.90
612;DHT22;293;53.888;11.464;2023-07-31T03:43:57;16.20;99.90
612;DHT22;293;53.888;11.464;2023-07-31T03:46:24;16.20;99.90
612;DHT22;293;53.888;11.464;2023-07-31T03:48:51;16.20;99.90
612;DHT22;293;53.888;11.464;2023-07-31T03:51:18;16.20;99.90
612;DHT22;293;53.888;11.464;2023-07-31T03:53:45;16.30;99.90
612;DHT22;293;53.888;11.464;2023-07-31T03:56:13;16.30;99.90
612;DHT22;293;53.888;11.464;2023-07-31T03:58:40;16.30;99.90
612;DHT22;293;53.888;11.464;2023-07-31T04:01:08;16.40;99.90
612;DHT22;293;53.888;11.464;2023-07-31T04:03:35;16.50;99.90
612;DHT22;293;53.888;11.464;2023-07-31T04:06:02;16.50;99.90
612;DHT22;293;53.888;11.464;2023-07-31T04:08:29;16.50;99.90
612;DHT22;293;53.888;11.464;2023-07-31T04:10:57;16.50;99.90
612;DHT22;293;53.888;11.464;2023-07-31T04:13:23;16.60;99.90
612;DHT22;293;53.888;11.464;2023-07-31T04:15:53;16.60;99.90
612;DHT22;293;53.888;11.464;2023-07-31T04:18:21;16.60;99.90
612;DHT22;293;53.888;11.464;2023-07-31T04:20:48;16.60;99.90
612;DHT22;293;53.888;11.464;2023-07-31T04:23:15;16.60;99.90
612;DHT22;293;53.888;11.464;2023-07-31T04:25:41;16.70;99.90
612;DHT22;293;53.888;11.464;2023-07-31T04:28:08;16.60;99.90
612;DHT22;293;53.888;11.464;2023-07-31T04:30:35;16.70;99.90
612;DHT22;293;53.888;11.464;2023-07-31T04:33:02;16.70;99.90
612;DHT22;293;53.888;11.464;2023-07-31T04:35:30;16.70;99.90
612;DHT22;293;53.888;11.464;2023-07-31T04:37:57;16.80;99.90
612;DHT22;293;53.888;11.464;2023-07-31T04:40:24;16.80;99.90
612;DHT22;293;53.888;11.464;2023-07-31T04:42:51;16.90;99.90
612;DHT22;293;53.888;11.464;2023-07-31T04:45:17;16.90;99.90
612;DHT22;293;53.888;11.464;2023-07-31T04:47:44;16.90;99.90
612;DHT22;293;53.888;11.464;2023-07-31T04:50:11;16.90;99.90
612;DHT22;293;53.888;11.464;2023-07-31T04:52:39;16.90;99.90
612;DHT22;293;53.888;11.464;2023-07-31T04:55:07;17.00;99.90
612;DHT22;293;53.888;11.464;2023-07-31T04:57:34;17.00;99.90
612;DHT22;293;53.888;11.464;2023-07-31T05:00:01;17.10;99.90
612;DHT22;293;53.888;11.464;2023-07-31T05:02:28;17.20;99.90
612;DHT22;293;53.888;11.464;2023-07-31T05:04:55;17.30;99.90
612;DHT22;293;53.888;11.464;2023-07-31T05:07:21;17.40;99.90
612;DHT22;293;53.888;11.464;2023-07-31T05:09:50;17.70;99.90
612;DHT22;293;53.888;11.464;2023-07-31T05:12:16;18.10;99.90
612;DHT22;293;53.888;11.464;2023-07-31T05:14:43;18.30;99.90
612;DHT22;293;53.888;11.464;2023-07-31T05:17:10;18.40;99.90
612;DHT22;293;53.888;11.464;2023-07-31T05:19:37;18.40;99.90
612;DHT22;293;53.888;11.464;2023-07-31T05:22:04;18.40;99.90
612;DHT22;293;53.888;11.464;2023-07-31T05:24:31;18.40;99.90
612;DHT22;293;53.888;11.464;2023-07-31T05:27:00;18.40;99.90
612;DHT22;293;53.888;11.464;2023-07-31T05:29:27;18.40;99.90
612;DHT22;293;53.888;11.464;2023-07-31T05:31:54;18.40;99.90
612;DHT22;293;53.888;11.464;2023-07-31T05:34:21;18.40;99.90
612;DHT22;293;53.888;11.464;2023-07-31T05:36:47;18.40;99.90
612;DHT22;293;53.888;11.464;2023-07-31T05:39:14;18.30;99.90
612;DHT22;293;53.888;11.464;2023-07-31T05:41:41;18.30;99.90
612;DHT22;293;53.888;11.464;2023-07-31T05:44:09;18.20;99.90
612;DHT22;293;53.888;11.464;2023-07-31T05:46:36;18.20;99.90
612;DHT22;293;53.888;11.464;2023-07-31T05:49:03;18.20;99.90
612;DHT22;293;53.888;11.464;2023-07-31T05:51:30;18.20;99.90
612;DHT22;293;53.888;11.464;2023-07-31T05:53:57;18.20;99.90
612;DHT22;293;53.888;11.464;2023-07-31T05:56:24;18.20;99.90
612;DHT22;293;53.888;11.464;2023-07-31T05:58:52;18.20;99.90
612;DHT22;293;53.888;11.464;2023-07-31T06:01:20;18.20;99.90
612;DHT22;293;53.888;11.464;2023-07-31T06:03:47;18.30;99.90
612;DHT22;293;53.888;11.464;2023-07-31T06:06:14;18.40;99.90
612;DHT22;293;53.888;11.464;2023-07-31T06:08:41;18.50;99.90
612;DHT22;293;53.888;11.464;2023-07-31T06:11:08;18.50;99.90
612;DHT22;293;53.888;11.464;2023-07-31T06:13:35;18.60;99.90
612;DHT22;293;53.888;11.464;2023-07-31T06:16:02;18.60;99.90
612;DHT22;293;53.888;11.464;2023-07-31T06:18:32;18.60;99.90
612;DHT22;293;53.888;11.464;2023-07-31T06:20:59;18.60;99.90
612;DHT22;293;53.888;11.464;2023-07-31T06:23:26;18.60;99.90
612;DHT22;293;53.888;11.464;2023-07-31T06:25:53;18.50;99.90
612;DHT22;293;53.888;11.464;2023-07-31T06:28:19;18.50;99.90
612;DHT22;293;53.888;11.464;2023-07-31T06:30:46;18.60;99.90
612;DHT22;293;53.888;11.464;2023-07-31T06:33:13;18.60;99.90
612;DHT22;293;53.888;11.464;2023-07-31T06:35:41;18.60;99.90
612;DHT22;293;53.888;11.464;2023-07-31T06:38:09;18.60;99.90
612;DHT22;293;53.888;11.464;2023-07-31T06:40:36;18.60;99.90
612;DHT22;293;53.888;11.464;2023-07-31T06:43:03;18.70;99.90
612;DHT22;293;53.888;11.464;2023-07-31T06:45:33;18.90;99.90
612;DHT22;293;53.888;11.464;2023-07-31T06:48:01;19.00;99.90
612;DHT22;293;53.888;11.464;2023-07-31T06:50:28;19.20;99.90
612;DHT22;293;53.888;11.464;2023-07-31T06:52:56;19.50;99.90
612;DHT22;293;53.888;11.464;2023-07-31T06:55:23;19.70;99.90
612;DHT22;293;53.888;11.464;2023-07-31T06:57:52;19.90;99.90
612;DHT22;293;53.888;11.464;2023-07-31T07:00:20;20.00;99.90
612;DHT22;293;53.888;11.464;2023-07-31T07:02:47;20.00;99.90
612;DHT22;293;53.888;11.464;2023-07-31T07:05:16;20.00;99.90
612;DHT22;293;53.888;11.464;2023-07-31T07:07:43;20.00;99.90
612;DHT22;293;53.888;11.464;2023-07-31T07:10:11;19.90;99.90
612;DHT22;293;53.888;11.464;2023-07-31T07:12:38;19.70;99.90
612;DHT22;293;53.888;11.464;2023-07-31T07:15:06;19.60;99.90
612;DHT22;293;53.888;11.464;2023-07-31T07:17:33;19.50;99.90
612;DHT22;293;53.888;11.464;2023-07-31T07:20:00;19.50;99.90
612;DHT22;293;53.888;11.464;2023-07-31T07:22:29;19.60;99.90
612;DHT22;293;53.888;11.464;2023-07-31T07:24:56;19.60;99.90
612;DHT22;293;53.888;11.464;2023-07-31T07:27:24;19.50;99.90
612;DHT22;293;53.888;11.464;2023-07-31T07:29:51;19.50;99.90
612;DHT22;293;53.888;11.464;2023-07-31T07:32:20;19.50;99.90
612;DHT22;293;53.888;11.464;2023-07-31T07:34:48;19.60;99.90
612;DHT22;293;53.888;11.464;2023-07-31T07:37:15;19.60;99.90
612;DHT22;293;53.888;11.464;2023-07-31T07:39:42;19.60;99.90
612;DHT22;293;53.888;11.464;2023-07-31T07:42:08;19.50;99.90
612;DHT22;293;53.888;11.464;2023-07-31T07:44:37;19.50;99.90
612;DHT22;293;53.888;11.464;2023-07-31T07:47:04;19.60;99.90
612;DHT22;293;53.888;11.464;2023-07-31T07:49:32;19.70;99.90
612;DHT22;293;53.888;11.464;2023-07-31T07:51:59;19.80;99.90
612;DHT22;293;53.888;11.464;2023-07-31T07:54:26;19.90;99.90
612;DHT22;293;53.888;11.464;2023-07-31T07:56:52;20.00;99.90
612;DHT22;293;53.888;11.464;2023-07-31T07:59:20;20.10;99.90
612;DHT22;293;53.888;11.464;2023-07-31T08:01:48;20.20;99.90
612;DHT22;293;53.888;11.464;2023-07-31T08:04:15;20.20;99.90
612;DHT22;293;53.888;11.464;2023-07-31T08:06:41;20.20;99.90
612;DHT22;293;53.888;11.464;2023-07-31T08:09:08;20.20;99.90
612;DHT22;293;53.888;11.464;2023-07-31T08:11:35;20.20;99.90
612;DHT22;293;53.888;11.464;2023-07-31T08:14:02;20.00;99.90
612;DHT22;293;53.888;11.464;2023-07-31T08:16:29;19.90;99.90
612;DHT22;293;53.888;11.464;2023-07-31T08:18:57;19.80;99.90
612;DHT22;293;53.888;11.464;2023-07-31T08:21:24;19.70;99.90
612;DHT22;293;53.888;11.464;2023-07-31T08:23:51;19.60;99.90
612;DHT22;293;53.888;11.464;2023-07-31T08:26:19;19.50;99.90
612;DHT22;293;53.888;11.464;2023-07-31T08:28:46;19.40;99.90
612;DHT22;293;53.888;11.464;2023-07-31T08:31:13;19.40;99.90
612;DHT22;293;53.888;11.464;2023-07-31T08:33:40;19.30;99.90
612;DHT22;293;53.888;11.464;2023-07-31T08:36:08;19.30;99.90
612;DHT22;293;53.888;11.464;2023-07-31T08:38:35;19.30;99.90
612;DHT22;293;53.888;11.464;2023-07-31T08:41:03;19.20;99.90
612;DHT22;293;53.888;11.464;2023-07-31T08:43:31;19.20;99.90
612;DHT22;293;53.888;11.464;2023-07-31T08:45:59;19.20;99.90
612;DHT22;293;53.888;11.464;2023-07-31T08:48:26;19.20;99.90
612;DHT22;293;53.888;11.464;2023-07-31T08:50:54;19.30;99.90
612;DHT22;293;53.888;11.464;2023-07-31T08:53:23;19.30;99.90
612;DHT22;293;53.888;11.464;2023-07-31T08:55:53;19.50;99.90
612;DHT22;293;53.888;11.464;2023-07-31T08:58:20;19.60;99.90
612;DHT22;293;53.888;11.464;2023-07-31T09:00:47;19.80;99.90
612;DHT22;293;53.888;11.464;2023-07-31T09:03:15;20.00;99.90
612;DHT22;293;53.888;11.464;2023-07-31T09:05:45;20.20;99.90
612;DHT22;293;53.888;11.464;2023-07-31T09:08:13;20.40;99.90
612;DHT22;293;53.888;11.464;2023-07-31T09:10:43;20.50;99.90
612;DHT22;293;53.888;11.464;2023-07-31T09:13:11;20.70;99.90
612;DHT22;293;53.888;11.464;2023-07-31T09:15:39;20.70;99.90
612;DHT22;293;53.888;11.464;2023-07-31T09:18:07;20.80;99.90
612;DHT22;293;53.888;11.464;2023-07-31T09:20:34;20.80;99.90
612;DHT22;293;53.888;11.464;2023-07-31T09:23:07;20.80;99.90
612;DHT22;293;53.888;11.464;2023-07-31T09:25:35;20.80;99.90
612;DHT22;293;53.888;11.464;2023-07-31T09:28:04;20.70;99.90
612;DHT22;293;53.888;11.464;2023-07-31T09:30:44;20.70;99.90
612;DHT22;293;53.888;11.464;2023-07-31T09:33:11;20.70;99.90
612;DHT22;293;53.888;11.464;2023-07-31T09:35:39;20.70;99.90
612;DHT22;293;53.888;11.464;2023-07-31T09:38:09;20.70;99.90
612;DHT22;293;53.888;11.464;2023-07-31T09:40:39;20.90;99.90
612;DHT22;293;53.888;11.464;2023-07-31T09:43:17;21.10;99.90
612;DHT22;293;53.888;11.464;2023-07-31T09:45:55;21.30;99.90
612;DHT22;293;53.888;11.464;2023-07-31T09:48:24;21.40;99.90
612;DHT22;293;53.888;11.464;2023-07-31T09:50:53;21.50;99.90
612;DHT22;293;53.888;11.464;2023-07-31T09:53:28;21.60;99.90
612;DHT22;293;53.888;11.464;2023-07-31T09:55:58;21.50;99.90
612;DHT22;293;53.888;11.464;2023-07-31T09:58:28;21.40;99.90
612;DHT22;293;53.888;11.464;2023-07-31T10:00:56;21.40;99.90
612;DHT22;293;53.888;11.464;2023-07-31T10:03:24;21.40;99.90
612;DHT22;293;53.888;11.464;2023-07-31T10:05:53;21.40;99.90
612;DHT22;293;53.888;11.464;2023-07-31T10:08:29;21.50;99.90
612;DHT22;293;53.888;11.464;2023-07-31T10:10:58;21.50;99.90
612;DHT22;293;53.888;11.464;2023-07-31T10:13:28;21.50;99.90
612;DHT22;293;53.888;11.464;2023-07-31T10:15:59;21.60;99.90
612;DHT22;293;53.888;11.464;2023-07-31T10:18:26;21.80;99.90
612;DHT22;293;53.888;11.464;2023-07-31T10:20:55;21.90;99.90
612;DHT22;293;53.888;11.464;2023-07-31T10:23:22;22.00;99.90
612;DHT22;293;53.888;11.464;2023-07-31T10:25:51;22.10;99.90
612;DHT22;293;53.888;11.464;2023-07-31T10:28:20;22.10;99.90
612;DHT22;293;53.888;11.464;2023-07-31T10:30:49;22.10;99.90
612;DHT22;293;53.888;11.464;2023-07-31T10:33:17;22.00;99.90
612;DHT22;293;53.888;11.464;2023-07-31T10:35:47;21.90;99.90
612;DHT22;293;53.888;11.464;2023-07-31T10:38:14;21.80;99.90
612;DHT22;293;53.888;11.464;2023-07-31T10:40:41;21.70;99.90
612;DHT22;293;53.888;11.464;2023-07-31T10:43:07;21.70;99.90
612;DHT22;293;53.888;11.464;2023-07-31T10:45:37;21.50;99.90
612;DHT22;293;53.888;11.464;2023-07-31T10:48:07;21.40;99.90
612;DHT22;293;53.888;11.464;2023-07-31T10:50:46;21.20;99.90
612;DHT22;293;53.888;11.464;2023-07-31T10:53:22;21.40;99.90
612;DHT22;293;53.888;11.464;2023-07-31T10:55:50;21.10;99.90
612;DHT22;293;53.888;11.464;2023-07-31T10:58:19;21.10;99.90
612;DHT22;293;53.888;11.464;2023-07-31T11:00:46;21.00;99.90
612;DHT22;293;53.888;11.464;2023-07-31T11:03:15;21.00;99.90
612;DHT22;293;53.888;11.464;2023-07-31T11:05:48;21.00;99.90
612;DHT22;293;53.888;11.464;2023-07-31T11:08:17;21.00;99.90
612;DHT22;293;53.888;11.464;2023-07-31T11:10:47;21.00;99.90
612;DHT22;293;53.888;11.464;2023-07-31T11:13:14;21.00;99.90
612;DHT22;293;53.888;11.464;2023-07-31T11:15:41;21.00;99.90
612;DHT22;293;53.888;11.464;2023-07-31T11:18:08;21.00;99.90
612;DHT22;293;53.888;11.464;2023-07-31T11:20:38;20.90;99.90
612;DHT22;293;53.888;11.464;2023-07-31T11:23:09;20.80;99.90
612;DHT22;293;53.888;11.464;2023-07-31T11:25:38;20.70;99.90
612;DHT22;293;53.888;11.464;2023-07-31T11:28:09;20.60;99.90
612;DHT22;293;53.888;11.464;2023-07-31T11:30:36;20.50;99.90
612;DHT22;293;53.888;11.464;2023-07-31T11:33:05;20.50;99.90
612;DHT22;293;53.888;11.464;2023-07-31T11:35:32;20.40;99.90
612;DHT22;293;53.888;11.464;2023-07-31T11:38:01;20.40;99.90
612;DHT22;293;53.888;11.464;2023-07-31T11:40:29;20.40;99.90
612;DHT22;293;53.888;11.464;2023-07-31T11:42:56;20.50;99.90
612;DHT22;293;53.888;11.464;2023-07-31T11:45:25;20.60;99.90
612;DHT22;293;53.888;11.464;2023-07-31T11:47:54;20.60;99.90
612;DHT22;293;53.888;11.464;2023-07-31T11:50:22;20.50;99.90
612;DHT22;293;53.888;11.464;2023-07-31T11:52:53;20.50;99.90
612;DHT22;293;53.888;11.464;2023-07-31T11:55:22;20.40;99.90
612;DHT22;293;53.888;11.464;2023-07-31T11:57:50;20.30;99.90
612;DHT22;293;53.888;11.464;2023-07-31T12:00:18;20.30;99.90
612;DHT22;293;53.888;11.464;2023-07-31T12:02:45;20.20;99.90
612;DHT22;293;53.888;11.464;2023-07-31T12:05:12;20.10;99.90
612;DHT22;293;53.888;11.464;2023-07-31T12:07:47;20.00;99.90
612;DHT22;293;53.888;11.464;2023-07-31T12:10:28;19.90;99.90
612;DHT22;293;53.888;11.464;2023-07-31T12:13:00;19.80;99.90
612;DHT22;293;53.888;11.464;2023-07-31T12:15:36;19.70;99.90
612;DHT22;293;53.888;11.464;2023-07-31T12:18:08;19.50;99.90
612;DHT22;293;53.888;11.464;2023-07-31T12:20:35;19.40;99.90
612;DHT22;293;53.888;11.464;2023-07-31T12:23:02;19.40;99.90
612;DHT22;293;53.888;11.464;2023-07-31T12:25:32;19.40;99.90
612;DHT22;293;53.888;11.464;2023-07-31T12:28:04;19.30;99.90
612;DHT22;293;53.888;11.464;2023-07-31T12:30:33;19.30;99.90
612;DHT22;293;53.888;11.464;2023-07-31T12:33:04;19.30;99.90
612;DHT22;293;53.888;11.464;2023-07-31T12:35:36;19.30;99.90
612;DHT22;293;53.888;11.464;2023-07-31T12:38:03;19.30;99.90
612;DHT22;293;53.888;11.464;2023-07-31T12:40:32;19.30;99.90
612;DHT22;293;53.888;11.464;2023-07-31T12:43:01;19.30;99.90
612;DHT22;293;53.888;11.464;2023-07-31T12:45:29;19.40;99.90
612;DHT22;293;53.888;11.464;2023-07-31T12:47:56;19.40;99.90
612;DHT22;293;53.888;11.464;2023-07-31T12:50:23;19.50;99.90
612;DHT22;293;53.888;11.464;2023-07-31T12:52:51;19.50;99.90
612;DHT22;293;53.888;11.464;2023-07-31T12:55:18;19.50;99.90
612;DHT22;293;53.888;11.464;2023-07-31T12:57:46;19.40;99.90
612;DHT22;293;53.888;11.464;2023-07-31T13:00:14;19.20;99.90
612;DHT22;293;53.888;11.464;2023-07-31T13:02:41;19.20;99.90
612;DHT22;293;53.888;11.464;2023-07-31T13:05:08;19.10;99.90
612;DHT22;293;53.888;11.464;2023-07-31T13:07:35;19.00;99.90
612;DHT22;293;53.888;11.464;2023-07-31T13:10:02;18.90;99.90
612;DHT22;293;53.888;11.464;2023-07-31T13:12:29;18.80;99.90
612;DHT22;293;53.888;11.464;2023-07-31T13:14:57;18.90;99.90
612;DHT22;293;53.888;11.464;2023-07-31T13:17:24;18.90;99.90
612;DHT22;293;53.888;11.464;2023-07-31T13:19:51;19.00;99.90
612;DHT22;293;53.888;11.464;2023-07-31T13:22:18;19.00;99.90
612;DHT22;293;53.888;11.464;2023-07-31T13:24:45;19.00;99.90
612;DHT22;293;53.888;11.464;2023-07-31T13:27:12;19.00;99.90
612;DHT22;293;53.888;11.464;2023-07-31T13:29:39;19.00;99.90
612;DHT22;293;53.888;11.464;2023-07-31T13:32:07;18.90;99.90
612;DHT22;293;53.888;11.464;2023-07-31T13:34:34;19.00;99.90
612;DHT22;293;53.888;11.464;2023-07-31T13:37:01;18.80;99.90
612;DHT22;293;53.888;11.464;2023-07-31T13:39:28;18.90;99.90
612;DHT22;293;53.888;11.464;2023-07-31T13:41:55;19.00;99.90
612;DHT22;293;53.888;11.464;2023-07-31T13:44:22;19.10;99.90
612;DHT22;293;53.888;11.464;2023-07-31T13:46:48;19.20;99.90
612;DHT22;293;53.888;11.464;2023-07-31T13:49:17;19.30;99.90
612;DHT22;293;53.888;11.464;2023-07-31T13:51:44;19.40;99.90
612;DHT22;293;53.888;11.464;2023-07-31T13:54:11;19.50;99.90
612;DHT22;293;53.888;11.464;2023-07-31T13:56:40;19.70;99.90
612;DHT22;293;53.888;11.464;2023-07-31T13:59:07;19.90;99.90
612;DHT22;293;53.888;11.464;2023-07-31T14:01:34;20.00;99.90
612;DHT22;293;53.888;11.464;2023-07-31T14:04:01;20.10;99.90
612;DHT22;293;53.888;11.464;2023-07-31T14:06:29;20.10;99.90
612;DHT22;293;53.888;11.464;2023-07-31T14:08:56;20.20;99.90
612;DHT22;293;53.888;11.464;2023-07-31T14:11:23;20.20;99.90
612;DHT22;293;53.888;11.464;2023-07-31T14:13:50;20.10;99.90
612;DHT22;293;53.888;11.464;2023-07-31T14:16:17;20.00;99.90
612;DHT22;293;53.888;11.464;2023-07-31T14:18:44;19.90;99.90
612;DHT22;293;53.888;11.464;2023-07-31T14:21:12;19.80;99.90
612;DHT22;293;53.888;11.464;2023-07-31T14:23:40;19.90;99.90
612;DHT22;293;53.888;11.464;2023-07-31T14:26:07;19.90;99.90
612;DHT22;293;53.888;11.464;2023-07-31T14:28:34;19.90;99.90
612;DHT22;293;53.888;11.464;2023-07-31T14:31:01;20.10;99.90
612;DHT22;293;53.888;11.464;2023-07-31T14:33:28;20.20;99.90
612;DHT22;293;53.888;11.464;2023-07-31T14:35:55;20.40;99.90
612;DHT22;293;53.888;11.464;2023-07-31T14:38:22;20.50;99.90
612;DHT22;293;53.888;11.464;2023-07-31T14:40:51;20.50;99.90
612;DHT22;293;53.888;11.464;2023-07-31T14:43:19;20.50;99.90
612;DHT22;293;53.888;11.464;2023-07-31T14:45:45;20.50;99.90
612;DHT22;293;53.888;11.464;2023-07-31T14:48:12;20.50;99.90
612;DHT22;293;53.888;11.464;2023-07-31T14:50:39;20.50;99.90
612;DHT22;293;53.888;11.464;2023-07-31T14:53:06;20.50;99.90
612;DHT22;293;53.888;11.464;2023-07-31T14:55:33;20.50;99.90
612;DHT22;293;53.888;11.464;2023-07-31T14:58:01;20.50;99.90
612;DHT22;293;53.888;11.464;2023-07-31T15:00:28;20.50;99.90
612;DHT22;293;53.888;11.464;2023-07-31T15:02:55;20.50;99.90
612;DHT22;293;53.888;11.464;2023-07-31T15:05:22;20.50;99.90
612;DHT22;293;53.888;11.464;2023-07-31T15:07:49;20.40;99.90
612;DHT22;293;53.888;11.464;2023-07-31T15:10:16;20.20;99.90
612;DHT22;293;53.888;11.464;2023-07-31T15:12:43;20.20;99.90
612;DHT22;293;53.888;11.464;2023-07-31T15:15:11;20.00;99.90
612;DHT22;293;53.888;11.464;2023-07-31T15:17:38;19.90;99.90
612;DHT22;293;53.888;11.464;2023-07-31T15:20:06;19.80;99.90
612;DHT22;293;53.888;11.464;2023-07-31T15:22:33;19.60;99.90
612;DHT22;293;53.888;11.464;2023-07-31T15:25:00;19.50;99.90
612;DHT22;293;53.888;11.464;2023-07-31T15:27:27;19.40;99.90
612;DHT22;293;53.888;11.464;2023-07-31T15:29:54;19.30;99.90
612;DHT22;293;53.888;11.464;2023-07-31T15:32:22;19.20;99.90
612;DHT22;293;53.888;11.464;2023-07-31T15:34:50;19.10;99.90
612;DHT22;293;53.888;11.464;2023-07-31T15:37:17;19.00;99.90
612;DHT22;293;53.888;11.464;2023-07-31T15:39:44;18.90;99.90
612;DHT22;293;53.888;11.464;2023-07-31T15:42:11;18.70;99.90
612;DHT22;293;53.888;11.464;2023-07-31T15:44:38;18.60;99.90
612;DHT22;293;53.888;11.464;2023-07-31T15:47:05;18.50;99.90
612;DHT22;293;53.888;11.464;2023-07-31T15:49:34;18.40;99.90
612;DHT22;293;53.888;11.464;2023-07-31T15:52:00;18.40;99.90
612;DHT22;293;53.888;11.464;2023-07-31T15:54:27;18.30;99.90
612;DHT22;293;53.888;11.464;2023-07-31T15:56:54;18.20;99.90
612;DHT22;293;53.888;11.464;2023-07-31T15:59:21;18.20;99.90
612;DHT22;293;53.888;11.464;2023-07-31T16:01:48;18.20;99.90
612;DHT22;293;53.888;11.464;2023-07-31T16:04:15;18.10;99.90
612;DHT22;293;53.888;11.464;2023-07-31T16:06:43;18.20;99.90
612;DHT22;293;53.888;11.464;2023-07-31T16:09:10;18.10;99.90
612;DHT22;293;53.888;11.464;2023-07-31T16:11:37;18.20;99.90
612;DHT22;293;53.888;11.464;2023-07-31T16:14:04;18.10;99.90
612;DHT22;293;53.888;11.464;2023-07-31T16:16:31;18.10;99.90
612;DHT22;293;53.888;11.464;2023-07-31T16:18:57;18.00;99.90
612;DHT22;293;53.888;11.464;2023-07-31T16:21:25;17.90;99.90